Dades meteomassalio
Diari Summary for Gener 31, 2017 Units:  English    Metric   Both
« Previous Day
Next Day »
Diari Semanal Mensual Anual Personalitzat
  Maxima: Minima: Mijana:
Temperatura: TemperatureC °F 3.1 °F 9.3 °F
Rosada: DewpointC °F 2.2 °F 6.5 °F
Humitat: Humidity % 61 % 84 %
Velocitat del vent: WindSpeedKMH mph 0.0 mph 1.4 mph
Racha vent: WindSpeedGustKMH mph - -
Vent:- - ENE
Pressio: PressurehPa in 1015.8 in -
Pluja: 0.3 in    
Historical Graphs
 
 
Tabular Data for Gener 31, 2017
Time Temperature Dew Point Pressure Wind Wind Speed Wind Gust Humidity Rainfall Rate (Hourly) solar Conditions
TemperatureC °F DewpointC °F PressurehPa in Calm     Humidity % HourlyPrecipMM in SolarRadiationWatts/m^2 W/m2 Conditions
00:04 7.1 °F 5.9 °F 1019.9 in Calm     92 % 0.0 in 0.0 W/m2 CLR
00:09 7.1 °F 5.8 °F 1019.9 in Calm     92 % 0.0 in 0.0 W/m2 CLR
00:14 6.9 °F 5.7 °F 1019.9 in Calm     92 % 0.0 in 0.0 W/m2 CLR
00:19 6.9 °F 5.7 °F 1019.9 in Calm     92 % 0.0 in 0.0 W/m2 CLR
00:24 7.0 °F 5.8 °F 1019.9 in Calm     92 % 0.0 in 0.0 W/m2 CLR
00:29 7.0 °F 5.8 °F 1019.9 in Calm     92 % 0.0 in 0.0 W/m2 CLR
00:34 6.8 °F 5.6 °F 1019.9 in Calm     92 % 0.0 in 0.0 W/m2 CLR
00:39 6.8 °F 5.6 °F 1019.9 in Calm     92 % 0.0 in 0.0 W/m2 CLR
00:44 6.8 °F 5.6 °F 1019.9 in Calm     92 % 0.0 in 0.0 W/m2 CLR
00:49 6.7 °F 5.4 °F 1019.9 in Calm     92 % 0.0 in 0.0 W/m2 CLR
00:54 6.8 °F 5.8 °F 1019.9 in Calm     93 % 0.0 in 0.0 W/m2 CLR
00:59 6.9 °F 5.8 °F 1019.9 in Calm     93 % 0.0 in 0.0 W/m2 CLR
01:04 6.9 °F 5.8 °F 1019.9 in Calm     93 % 0.0 in 0.0 W/m2 CLR
01:09 6.7 °F 5.5 °F 1019.5 in Calm     92 % 0.0 in 0.0 W/m2 CLR
01:14 6.5 °F 5.3 °F 1019.5 in Calm     92 % 0.0 in 0.0 W/m2 CLR
01:19 6.3 °F 5.1 °F 1019.5 in Calm     92 % 0.0 in 0.0 W/m2 CLR
01:24 6.3 °F 5.1 °F 1019.5 in Calm     92 % 0.0 in 0.0 W/m2 CLR
01:29 6.2 °F 5.0 °F 1019.5 in Calm     92 % 0.0 in 0.0 W/m2 CLR
01:34 6.2 °F 5.1 °F 1019.5 in Calm     93 % 0.0 in 0.0 W/m2 CLR
01:39 6.1 °F 5.1 °F 1019.5 in Calm     93 % 0.0 in 0.0 W/m2 CLR
01:44 5.9 °F 4.7 °F 1019.5 in Calm     92 % 0.0 in 0.0 W/m2 CLR
01:49 5.8 °F 4.7 °F 1019.5 in Calm     93 % 0.0 in 0.0 W/m2 CLR
01:54 5.7 °F 4.7 °F 1019.5 in Calm     93 % 0.0 in 0.0 W/m2 CLR
01:59 5.7 °F 4.7 °F 1019.5 in Calm     93 % 0.0 in 0.0 W/m2 CLR
02:04 5.8 °F 4.7 °F 1019.5 in Calm     93 % 0.0 in 0.0 W/m2 CLR
02:09 5.8 °F 4.7 °F 1019.5 in Calm     93 % 0.0 in 0.0 W/m2 CLR
02:14 5.7 °F 4.6 °F 1019.5 in Calm     93 % 0.0 in 0.0 W/m2 CLR
02:19 5.6 °F 4.6 °F 1019.5 in Calm     93 % 0.0 in 0.0 W/m2 CLR
02:24 5.6 °F 4.5 °F 1019.5 in Calm     93 % 0.0 in 0.0 W/m2 CLR
02:29 5.4 °F 4.4 °F 1019.5 in Calm     93 % 0.0 in 0.0 W/m2 CLR
02:34 5.4 °F 4.3 °F 1019.5 in Calm     93 % 0.0 in 0.0 W/m2 CLR
02:39 5.3 °F 4.3 °F 1019.5 in Calm     93 % 0.0 in 0.0 W/m2 CLR
02:44 5.4 °F 4.3 °F 1019.5 in Calm     93 % 0.0 in 0.0 W/m2 CLR
02:49 5.5 °F 4.4 °F 1019.5 in Calm     93 % 0.0 in 0.0 W/m2 CLR
02:54 5.5 °F 4.4 °F 1019.5 in Calm     93 % 0.0 in 0.0 W/m2 CLR
02:59 5.4 °F 4.3 °F 1019.5 in Calm     93 % 0.0 in 0.0 W/m2 CLR
03:04 5.4 °F 4.3 °F 1019.5 in Calm     93 % 0.0 in 0.0 W/m2 CLR
03:09 5.4 °F 4.3 °F 1019.5 in Calm     93 % 0.0 in 0.0 W/m2 CLR
03:14 5.2 °F 4.2 °F 1019.5 in Calm     93 % 0.0 in 0.0 W/m2 CLR
03:19 5.1 °F 4.1 °F 1019.5 in Calm     93 % 0.0 in 0.0 W/m2 CLR
03:24 5.0 °F 3.9 °F 1019.5 in Calm     93 % 0.0 in 0.0 W/m2 CLR
03:29 4.9 °F 3.9 °F 1019.5 in Calm     93 % 0.0 in 0.0 W/m2 CLR
03:34 5.0 °F 3.9 °F 1019.5 in Calm     93 % 0.0 in 0.0 W/m2 CLR
03:39 5.1 °F 4.1 °F 1019.5 in Calm     93 % 0.0 in 0.0 W/m2 CLR
03:44 5.1 °F 4.1 °F 1019.5 in Calm     93 % 0.0 in 0.0 W/m2 CLR
03:49 5.0 °F 3.9 °F 1019.5 in Calm     93 % 0.0 in 0.0 W/m2 CLR
03:54 4.9 °F 3.8 °F 1019.5 in Calm     93 % 0.0 in 0.0 W/m2 CLR
03:59 4.8 °F 3.8 °F 1019.2 in Calm     93 % 0.0 in 0.0 W/m2 CLR
04:04 4.8 °F 3.8 °F 1019.2 in Calm     93 % 0.0 in 0.0 W/m2 CLR
04:09 4.8 °F 3.8 °F 1019.2 in Calm     93 % 0.0 in 0.0 W/m2 CLR
04:14 4.8 °F 3.8 °F 1019.2 in Calm     93 % 0.0 in 0.0 W/m2 CLR
04:19 4.7 °F 3.6 °F 1019.2 in Calm     93 % 0.0 in 0.0 W/m2 CLR
04:24 4.5 °F 3.4 °F 1019.2 in Calm     93 % 0.0 in 0.0 W/m2 CLR
04:29 4.4 °F 3.4 °F 1019.2 in Calm     93 % 0.0 in 0.0 W/m2 CLR
04:34 4.4 °F 3.4 °F 1019.2 in Calm     93 % 0.0 in 0.0 W/m2 CLR
04:39 4.4 °F 3.4 °F 1019.2 in Calm     93 % 0.0 in 0.0 W/m2 CLR
04:44 4.6 °F 3.5 °F 1019.2 in Calm     93 % 0.0 in 0.0 W/m2 CLR
04:49 4.4 °F 3.4 °F 1019.2 in Calm     93 % 0.0 in 0.0 W/m2 CLR
04:54 4.3 °F 3.3 °F 1019.2 in Calm     93 % 0.0 in 0.0 W/m2 CLR
04:59 4.3 °F 3.2 °F 1019.2 in Calm     93 % 0.0 in 0.0 W/m2 CLR
05:04 4.3 °F 3.4 °F 1019.2 in Calm     94 % 0.0 in 0.0 W/m2 CLR
05:09 4.3 °F 3.4 °F 1019.2 in Calm     94 % 0.0 in 0.0 W/m2 CLR
05:14 4.2 °F 3.2 °F 1019.2 in Calm     93 % 0.0 in 0.0 W/m2 CLR
05:19 4.2 °F 3.1 °F 1019.2 in Calm     93 % 0.0 in 0.0 W/m2 CLR
05:24 4.3 °F 3.4 °F 1019.2 in Calm     94 % 0.0 in 0.0 W/m2 CLR
05:29 4.2 °F 3.2 °F 1019.2 in Calm     93 % 0.0 in 0.0 W/m2 CLR
05:34 4.2 °F 3.1 °F 1019.2 in Calm     93 % 0.0 in 0.0 W/m2 CLR
05:39 4.1 °F 3.1 °F 1019.2 in Calm     93 % 0.0 in 0.0 W/m2 CLR
05:44 4.1 °F 3.0 °F 1019.2 in Calm     93 % 0.0 in 0.0 W/m2 CLR
05:50 4.1 °F 3.0 °F 1019.2 in Calm     93 % 0.0 in 0.0 W/m2 CLR
05:55 3.9 °F 2.8 °F 1019.2 in Calm     93 % 0.0 in 0.0 W/m2 CLR
06:00 3.8 °F 2.7 °F 1019.2 in Calm     93 % 0.0 in 0.0 W/m2 CLR
06:05 3.9 °F 3.1 °F 1019.5 in Calm     94 % 0.0 in 0.0 W/m2 CLR
06:10 4.1 °F 3.2 °F 1019.2 in Calm     94 % 0.0 in 0.0 W/m2 CLR
06:15 4.4 °F 3.5 °F 1019.2 in Calm     94 % 0.0 in 0.0 W/m2 CLR
06:20 4.3 °F 3.4 °F 1019.2 in Calm     94 % 0.0 in 0.0 W/m2 CLR
06:25 3.9 °F 2.9 °F 1019.2 in Calm     93 % 0.0 in 0.0 W/m2 CLR
06:30 3.8 °F 2.7 °F 1019.2 in Calm     93 % 0.0 in 0.0 W/m2 CLR
06:35 3.7 °F 2.7 °F 1019.2 in Calm     93 % 0.0 in 0.0 W/m2 CLR
06:40 3.7 °F 2.8 °F 1019.2 in Calm     94 % 0.0 in 0.0 W/m2 CLR
06:45 3.8 °F 2.9 °F 1019.5 in Calm     94 % 0.0 in 0.0 W/m2 CLR
06:50 3.9 °F 3.0 °F 1019.5 in Calm     94 % 0.0 in 0.0 W/m2 CLR
06:55 3.9 °F 3.0 °F 1019.2 in Calm     94 % 0.0 in 0.0 W/m2 CLR
07:00 4.0 °F 3.1 °F 1019.2 in Calm     94 % 0.0 in 0.0 W/m2 CLR
07:05 4.1 °F 3.2 °F 1019.2 in Calm     94 % 0.0 in 0.0 W/m2 CLR
07:10 4.1 °F 3.2 °F 1019.5 in Calm     94 % 0.0 in 0.0 W/m2 CLR
07:15 3.9 °F 3.0 °F 1019.5 in Calm     94 % 0.0 in 0.0 W/m2 CLR
07:20 3.8 °F 2.7 °F 1019.5 in Calm     93 % 0.0 in 0.0 W/m2 CLR
07:25 3.6 °F 2.6 °F 1019.5 in Calm     93 % 0.0 in 0.0 W/m2 CLR
07:30 3.4 °F 2.4 °F 1019.5 in Calm     93 % 0.0 in 0.0 W/m2 CLR
07:35 3.3 °F 2.4 °F 1019.5 in Calm     94 % 0.0 in 0.0 W/m2 CLR
07:40 3.3 °F 2.4 °F 1019.5 in Calm     94 % 0.0 in 0.0 W/m2 CLR
07:45 3.3 °F 2.4 °F 1019.5 in Calm     94 % 0.0 in 0.0 W/m2 CLR
07:50 3.3 °F 2.4 °F 1019.5 in Calm     94 % 0.0 in 0.0 W/m2 CLR
07:55 3.4 °F 2.5 °F 1019.5 in Calm     94 % 0.0 in 0.0 W/m2 CLR
08:00 3.3 °F 2.4 °F 1019.5 in Calm     94 % 0.0 in 0.0 W/m2 CLR
08:05 3.2 °F 2.3 °F 1019.5 in Calm     94 % 0.0 in 0.0 W/m2 OVC
08:10 3.1 °F 2.2 °F 1019.5 in Calm     94 % 0.0 in 0.0 W/m2 OVC
08:15 3.2 °F 2.3 °F 1019.5 in Calm     94 % 0.3 in 5.0 W/m2 RA
08:20 3.3 °F 2.4 °F 1019.5 in Calm     94 % 0.3 in 7.0 W/m2 BKN
08:25 3.3 °F 2.4 °F 1019.5 in Calm     94 % 0.3 in 11.0 W/m2 BKN
08:30 3.4 °F 2.5 °F 1019.5 in Calm     94 % 0.3 in 14.0 W/m2 BKN
08:35 3.4 °F 2.5 °F 1019.5 in Calm     94 % 0.3 in 16.0 W/m2 BKN
08:40 3.4 °F 2.5 °F 1019.5 in Calm     94 % 0.3 in 25.0 W/m2 BKN
08:45 3.5 °F 2.6 °F 1019.5 in Calm     94 % 0.3 in 30.0 W/m2 BKN
08:50 3.6 °F 2.7 °F 1019.5 in Calm     94 % 0.3 in 37.0 W/m2 BKN
08:55 3.8 °F 2.9 °F 1019.5 in Calm     94 % 0.3 in 49.0 W/m2 SCT
09:00 4.1 °F 3.2 °F 1019.5 in Calm     94 % 0.3 in 53.0 W/m2 SCT
09:05 4.3 °F 3.4 °F 1019.9 in Calm     94 % 0.3 in 84.0 W/m2 FEW
09:10 4.6 °F 3.7 °F 1019.5 in Calm     94 % 0.3 in 98.0 W/m2 CLR
09:15 4.8 °F 3.9 °F 1019.5 in Calm     94 % 0.0 in 93.0 W/m2 CLR
09:20 5.1 °F 4.2 °F 1019.5 in Calm     94 % 0.0 in 123.0 W/m2 CLR
09:25 5.6 °F 4.7 °F 1019.5 in Calm     94 % 0.0 in 149.0 W/m2 CLR
09:30 5.9 °F 5.1 °F 1019.5 in Calm     94 % 0.0 in 137.0 W/m2 CLR
09:35 6.2 °F 5.3 °F 1019.5 in Calm     94 % 0.0 in 135.0 W/m2 CLR
09:40 6.5 °F 5.6 °F 1019.5 in Calm     94 % 0.0 in 179.0 W/m2 CLR
09:45 6.7 °F 5.7 °F 1019.5 in Calm     93 % 0.0 in 135.0 W/m2 CLR
09:50 6.9 °F 5.9 °F 1019.5 in Calm     93 % 0.0 in 134.0 W/m2 CLR
09:55 7.1 °F 6.0 °F 1019.5 in Calm     93 % 0.0 in 204.0 W/m2 CLR
10:00 7.3 °F 6.2 °F 1019.5 in Calm     93 % 0.0 in 211.0 W/m2 CLR
10:05 7.5 °F 6.3 °F 1019.5 in Calm     92 % 0.0 in 244.0 W/m2 CLR
10:10 7.8 °F 6.6 °F 1019.5 in Calm     92 % 0.0 in 248.0 W/m2 CLR
10:15 8.2 °F 7.0 °F 1019.5 in Calm     92 % 0.0 in 302.0 W/m2 CLR
10:20 8.6 °F 7.2 °F 1019.5 in Calm     91 % 0.0 in 258.0 W/m2 CLR
10:25 9.1 °F 7.5 °F 1019.5 in Calm     90 % 0.0 in 257.0 W/m2 CLR
10:30 9.3 °F 7.4 °F 1019.5 in Calm     88 % 0.0 in 308.0 W/m2 CLR
10:35 9.5 °F 7.6 °F 1019.5 in Calm     88 % 0.0 in 374.0 W/m2 CLR
10:40 9.8 °F 7.7 °F 1019.5 in Calm     87 % 0.0 in 343.0 W/m2 CLR
10:45 10.1 °F 8.1 °F 1019.5 in Calm     87 % 0.0 in 360.0 W/m2 CLR
10:50 10.5 °F 8.3 °F 1019.5 in Calm     86 % 0.0 in 385.0 W/m2 CLR
10:55 10.8 °F 8.3 °F 1019.5 in Calm     85 % 0.0 in 341.0 W/m2 CLR
11:00 11.1 °F 8.5 °F 1019.5 in Calm     84 % 0.0 in 355.0 W/m2 CLR
11:05 11.3 °F 8.4 °F 1019.5 in Calm     82 % 0.0 in 297.0 W/m2 CLR
11:10 11.6 °F 8.4 °F 1019.5 in Calm     81 % 0.0 in 327.0 W/m2 CLR
11:15 11.8 °F 8.6 °F 1019.5 in Calm     81 % 0.0 in 304.0 W/m2 CLR
11:20 12.0 °F 8.8 °F 1019.5 in Calm     81 % 0.0 in 403.0 W/m2 CLR
11:25 12.3 °F 8.9 °F 1019.2 in Calm     80 % 0.0 in 434.0 W/m2 CLR
11:30 12.4 °F 8.9 °F 1019.2 in Calm     79 % 0.0 in 418.0 W/m2 CLR
11:35 12.8 °F 9.3 °F 1019.2 in Calm     79 % 0.0 in 427.0 W/m2 CLR
11:40 13.2 °F 9.4 °F 1019.2 in Calm     78 % 0.0 in 446.0 W/m2 CLR
11:45 13.5 °F 9.6 °F 1019.2 in Calm     77 % 0.0 in 466.0 W/m2 CLR
11:50 13.8 °F 9.7 °F 1019.2 in Calm     76 % 0.0 in 480.0 W/m2 CLR
11:55 14.1 °F 9.3 °F 1018.8 in Calm     73 % 0.0 in 492.0 W/m2 CLR
12:01 14.3 °F 9.6 °F 1018.8 in Calm     73 % 0.0 in 485.0 W/m2 CLR
12:06 14.5 °F 9.5 °F 1018.8 in Calm     72 % 0.0 in 480.0 W/m2 CLR
12:11 14.7 °F 9.7 °F 1018.8 in Calm     72 % 0.0 in 501.0 W/m2 CLR
12:16 14.9 °F 9.7 °F 1018.8 in Calm     71 % 0.0 in 404.0 W/m2 CLR
12:21 15.1 °F 9.7 °F 1018.5 in Calm     70 % 0.0 in 429.0 W/m2 CLR
12:26 15.2 °F 9.9 °F 1018.5 in Calm     71 % 0.0 in 540.0 W/m2 CLR
12:31 15.3 °F 9.6 °F 1018.5 in Calm     69 % 0.0 in 464.0 W/m2 CLR
12:36 15.4 °F 10.0 °F 1018.2 in Calm     70 % 0.0 in 541.0 W/m2 CLR
12:41 15.6 °F 9.9 °F 1018.2 in Calm     69 % 0.0 in 580.0 W/m2 CLR
12:46 15.7 °F 9.8 °F 1018.2 in Calm     68 % 0.0 in 626.0 W/m2 CLR
12:51 16.0 °F 10.3 °F 1018.2 in NNE 5.6 mph 5.6 mph 69 % 0.0 in 624.0 W/m2 CLR
12:56 16.3 °F 10.2 °F 1017.8 in Calm     67 % 0.0 in 417.0 W/m2 CLR
13:01 16.4 °F 9.3 °F 1017.8 in Calm     63 % 0.0 in 487.0 W/m2 CLR
13:06 16.4 °F 9.3 °F 1017.8 in East 5.6 mph 5.6 mph 63 % 0.0 in 492.0 W/m2 CLR
13:11 16.4 °F 9.1 °F 1017.8 in East 11.1 mph 11.1 mph 62 % 0.0 in 601.0 W/m2 CLR
13:16 16.7 °F 9.4 °F 1017.5 in ESE 8.0 mph 8.0 mph 62 % 0.0 in 570.0 W/m2 CLR
13:21 16.9 °F 9.6 °F 1017.5 in East 5.6 mph 5.6 mph 62 % 0.0 in 543.0 W/m2 CLR
13:26 16.9 °F 10.6 °F 1017.5 in ENE 1.9 mph   66 % 0.0 in 524.0 W/m2 CLR
13:31 17.0 °F 10.1 °F 1017.5 in ENE 5.6 mph   64 % 0.0 in 492.0 W/m2 CLR
13:36 17.0 °F 10.1 °F 1017.2 in NE 11.1 mph 11.1 mph 64 % 0.0 in 450.0 W/m2 CLR
13:41 16.9 °F 10.1 °F 1017.2 in NE 7.4 mph 7.4 mph 64 % 0.0 in 510.0 W/m2 CLR
13:46 17.1 °F 10.2 °F 1016.8 in ENE 3.7 mph   64 % 0.0 in 425.0 W/m2 CLR
13:51 17.1 °F 10.0 °F 1016.8 in Calm     63 % 0.0 in 504.0 W/m2 CLR
13:56 17.1 °F 10.2 °F 1016.8 in ENE 5.6 mph 5.6 mph 64 % 0.0 in 504.0 W/m2 CLR
14:01 17.2 °F 10.3 °F 1016.8 in NE 9.3 mph 9.3 mph 64 % 0.0 in 482.0 W/m2 CLR
14:06 17.3 °F 10.4 °F 1016.5 in ENE 11.1 mph 11.1 mph 64 % 0.0 in 487.0 W/m2 CLR
14:11 17.3 °F 10.4 °F 1016.5 in ENE 11.1 mph 11.1 mph 64 % 0.0 in 478.0 W/m2 CLR
14:16 17.3 °F 10.2 °F 1016.5 in ENE 4.8 mph 4.8 mph 63 % 0.0 in 475.0 W/m2 CLR
14:21 17.3 °F 10.4 °F 1016.5 in ENE 7.4 mph 7.4 mph 64 % 0.0 in 468.0 W/m2 CLR
14:26 17.3 °F 10.4 °F 1016.1 in Calm     64 % 0.0 in 459.0 W/m2 CLR
14:31 17.4 °F 10.8 °F 1016.1 in Calm   0.6 mph 65 % 0.0 in 466.0 W/m2 CLR
14:36 17.7 °F 10.8 °F 1016.1 in ENE 6.4 mph 6.4 mph 64 % 0.0 in 457.0 W/m2 CLR
14:41 17.6 °F 10.2 °F 1016.1 in ENE 6.4 mph 6.4 mph 62 % 0.0 in 464.0 W/m2 CLR
14:46 17.6 °F 10.2 °F 1016.1 in East 9.3 mph 9.3 mph 62 % 0.0 in 425.0 W/m2 CLR
14:51 17.6 °F 10.5 °F 1015.8 in East 5.6 mph 5.6 mph 63 % 0.0 in 438.0 W/m2 CLR
14:56 17.7 °F 10.1 °F 1015.8 in East 9.3 mph   61 % 0.0 in 439.0 W/m2 CLR
15:01 17.7 °F 10.3 °F 1015.8 in East 13.0 mph 13.0 mph 62 % 0.0 in 424.0 W/m2 CLR
15:06 17.6 °F 10.2 °F 1015.8 in East 5.6 mph 5.6 mph 62 % 0.0 in 420.0 W/m2 CLR
15:11 17.6 °F 10.5 °F 1015.8 in ENE 7.4 mph 7.4 mph 63 % 0.0 in 415.0 W/m2 CLR
15:16 17.6 °F 10.5 °F 1015.8 in ENE 5.6 mph 5.6 mph 63 % 0.0 in 399.0 W/m2 CLR
15:21 17.6 °F 10.2 °F 1015.8 in ENE 12.9 mph 12.9 mph 62 % 0.0 in 367.0 W/m2 CLR
15:26 17.6 °F 10.7 °F 1015.8 in ENE 11.1 mph 11.1 mph 64 % 0.0 in 392.0 W/m2 CLR
15:31 17.5 °F 10.4 °F 1015.8 in ENE 11.3 mph 11.3 mph 63 % 0.0 in 378.0 W/m2 CLR
15:36 17.4 °F 10.3 °F 1015.8 in NE 16.7 mph 16.7 mph 63 % 0.0 in 353.0 W/m2 CLR
15:41 17.3 °F 10.2 °F 1015.8 in NE 18.5 mph 18.5 mph 63 % 0.0 in 343.0 W/m2 CLR
15:46 17.3 °F 10.2 °F 1015.8 in NE 5.6 mph 5.6 mph 63 % 0.0 in 330.0 W/m2 CLR
15:51 17.4 °F 10.7 °F 1015.8 in NE 5.6 mph 5.6 mph 65 % 0.0 in 330.0 W/m2 CLR
15:56 17.3 °F 10.7 °F 1015.8 in NE 13.0 mph 13.0 mph 65 % 0.0 in 294.0 W/m2 CLR
16:01 17.2 °F 10.6 °F 1015.8 in NE 7.4 mph 7.4 mph 65 % 0.0 in 304.0 W/m2 CLR
16:06 17.2 °F 10.6 °F 1015.8 in NE 7.4 mph 7.4 mph 65 % 0.0 in 295.0 W/m2 CLR
16:11 17.2 °F 10.6 °F 1015.8 in NE 11.1 mph 11.1 mph 65 % 0.0 in 274.0 W/m2 CLR
16:16 17.2 °F 10.6 °F 1015.8 in NE 7.4 mph 7.4 mph 65 % 0.0 in 271.0 W/m2 CLR
16:21 17.2 °F 10.3 °F 1015.8 in NE 7.4 mph 7.4 mph 64 % 0.0 in 250.0 W/m2 CLR
16:26 17.2 °F 10.6 °F 1016.1 in ENE 4.8 mph 4.8 mph 65 % 0.0 in 234.0 W/m2 CLR
16:31 17.2 °F 10.6 °F 1015.8 in East 5.6 mph 5.6 mph 65 % 0.0 in 207.0 W/m2 CLR
16:36 17.0 °F 10.4 °F 1016.1 in East 9.3 mph 9.3 mph 65 % 0.0 in 216.0 W/m2 CLR
16:42 16.8 °F 10.4 °F 1016.1 in East 6.4 mph 6.4 mph 66 % 0.0 in 193.0 W/m2 CLR
16:46 16.6 °F 10.2 °F 1016.1 in East 13.0 mph 13.0 mph 66 % 0.0 in 169.0 W/m2 CLR
16:52 16.6 °F 10.4 °F 1016.1 in East 6.4 mph 6.4 mph 67 % 0.0 in 149.0 W/m2 CLR
16:57 16.4 °F 10.2 °F 1016.1 in East 11.1 mph 11.1 mph 67 % 0.0 in 141.0 W/m2 CLR
17:02 16.2 °F 10.3 °F 1016.1 in East 5.6 mph 5.6 mph 68 % 0.0 in 118.0 W/m2 CLR
17:07 16.1 °F 10.2 °F 1016.1 in East 5.6 mph 5.6 mph 68 % 0.0 in 86.0 W/m2 CLR
17:12 15.9 °F 10.1 °F 1016.1 in East 7.4 mph   68 % 0.0 in 76.0 W/m2 CLR
17:17 15.8 °F 9.9 °F 1016.1 in East 5.6 mph   68 % 0.0 in 70.0 W/m2 FEW
17:22 15.7 °F 10.1 °F 1016.1 in Calm   0.3 mph 69 % 0.0 in 63.0 W/m2 SCT
17:27 15.6 °F 9.9 °F 1016.5 in ENE 5.6 mph 5.6 mph 69 % 0.0 in 49.0 W/m2 SCT
17:32 15.4 °F 10.0 °F 1016.5 in Calm     70 % 0.0 in 46.0 W/m2 SCT
17:37 15.3 °F 9.8 °F 1016.5 in Calm     70 % 0.0 in 39.0 W/m2 BKN
17:42 15.2 °F 9.9 °F 1016.5 in Calm     71 % 0.0 in 35.0 W/m2 BKN
17:47 15.0 °F 9.8 °F 1016.5 in Calm     71 % 0.0 in 28.0 W/m2 BKN
17:52 14.8 °F 9.8 °F 1016.5 in Calm     72 % 0.0 in 25.0 W/m2 BKN
17:57 14.7 °F 9.7 °F 1016.5 in Calm     72 % 0.0 in 19.0 W/m2 BKN
18:02 14.6 °F 9.6 °F 1016.8 in Calm     72 % 0.0 in 12.0 W/m2 BKN
18:07 14.4 °F 9.6 °F 1016.8 in Calm     73 % 0.0 in 9.0 W/m2 BKN
18:12 14.2 °F 9.4 °F 1016.8 in Calm     73 % 0.0 in 0.0 W/m2 OVC
18:17 14.1 °F 9.5 °F 1016.8 in Calm     74 % 0.0 in 0.0 W/m2 OVC
18:22 13.9 °F 9.4 °F 1016.8 in Calm     74 % 0.0 in 0.0 W/m2 OVC
18:27 13.8 °F 9.4 °F 1016.8 in Calm     75 % 0.0 in 0.0 W/m2 CLR
18:32 13.7 °F 9.5 °F 1016.8 in Calm     76 % 0.0 in 0.0 W/m2 CLR
18:37 13.5 °F 9.3 °F 1017.2 in Calm     76 % 0.0 in 0.0 W/m2 CLR
18:42 13.3 °F 9.3 °F 1017.2 in Calm     77 % 0.0 in 0.0 W/m2 CLR
18:47 13.1 °F 9.1 °F 1017.2 in Calm     77 % 0.0 in 0.0 W/m2 CLR
18:52 12.8 °F 9.1 °F 1017.2 in Calm     78 % 0.0 in 0.0 W/m2 CLR
18:57 12.6 °F 9.0 °F 1017.2 in Calm     79 % 0.0 in 0.0 W/m2 CLR
19:02 12.3 °F 9.0 °F 1017.2 in Calm     80 % 0.0 in 0.0 W/m2 CLR
19:07 12.1 °F 8.7 °F 1017.2 in Calm     80 % 0.0 in 0.0 W/m2 CLR
19:12 11.7 °F 8.4 °F 1017.2 in Calm     80 % 0.0 in 0.0 W/m2 CLR
19:17 11.5 °F 8.6 °F 1017.2 in Calm     82 % 0.0 in 0.0 W/m2 CLR
19:22 11.1 °F 8.3 °F 1017.2 in Calm     83 % 0.0 in 0.0 W/m2 CLR
19:27 10.8 °F 8.2 °F 1017.2 in Calm     84 % 0.0 in 0.0 W/m2 CLR
19:32 10.6 °F 8.2 °F 1017.2 in Calm     85 % 0.0 in 0.0 W/m2 CLR
19:37 10.3 °F 7.9 °F 1017.5 in Calm     85 % 0.0 in 0.0 W/m2 CLR
19:42 10.0 °F 7.6 °F 1017.5 in Calm     85 % 0.0 in 0.0 W/m2 CLR
19:47 9.7 °F 7.5 °F 1017.5 in Calm     86 % 0.0 in 0.0 W/m2 CLR
19:52 9.6 °F 7.5 °F 1017.5 in Calm     87 % 0.0 in 0.0 W/m2 CLR
19:57 9.4 °F 7.4 °F 1017.5 in Calm     87 % 0.0 in 0.0 W/m2 CLR
20:02 9.3 °F 7.4 °F 1017.5 in Calm     88 % 0.0 in 0.0 W/m2 CLR
20:07 9.2 °F 7.3 °F 1017.5 in Calm     88 % 0.0 in 0.0 W/m2 CLR
20:12 9.1 °F 7.2 °F 1017.5 in Calm     88 % 0.0 in 0.0 W/m2 CLR
20:17 9.0 °F 7.1 °F 1017.5 in Calm     88 % 0.0 in 0.0 W/m2 CLR
20:22 8.9 °F 7.2 °F 1017.5 in Calm     89 % 0.0 in 0.0 W/m2 CLR
20:27 8.8 °F 7.1 °F 1017.5 in Calm     89 % 0.0 in 0.0 W/m2 CLR
20:32 8.6 °F 6.9 °F 1017.5 in Calm     89 % 0.0 in 0.0 W/m2 CLR
20:37 8.5 °F 6.8 °F 1017.8 in Calm     89 % 0.0 in 0.0 W/m2 CLR
20:42 8.4 °F 6.9 °F 1017.8 in Calm     90 % 0.0 in 0.0 W/m2 CLR
20:47 8.4 °F 6.8 °F 1017.8 in Calm     90 % 0.0 in 0.0 W/m2 CLR
20:52 8.3 °F 6.8 °F 1017.8 in Calm     90 % 0.0 in 0.0 W/m2 CLR
20:57 8.3 °F 6.8 °F 1017.8 in Calm     90 % 0.0 in 0.0 W/m2 CLR
21:02 8.2 °F 6.7 °F 1017.8 in Calm     90 % 0.0 in 0.0 W/m2 CLR
21:07 8.1 °F 6.6 °F 1017.8 in Calm     90 % 0.0 in 0.0 W/m2 CLR
21:12 7.9 °F 6.4 °F 1017.8 in Calm     90 % 0.0 in 0.0 W/m2 CLR
21:17 7.8 °F 6.2 °F 1018.2 in Calm     90 % 0.0 in 0.0 W/m2 CLR
21:22 7.6 °F 6.1 °F 1018.2 in Calm     90 % 0.0 in 0.0 W/m2 CLR
21:27 7.6 °F 6.2 °F 1018.2 in Calm     91 % 0.0 in 0.0 W/m2 CLR
21:32 7.4 °F 6.1 °F 1018.2 in Calm     91 % 0.0 in 0.0 W/m2 CLR
21:37 7.4 °F 6.0 °F 1018.2 in Calm     91 % 0.0 in 0.0 W/m2 CLR
21:42 7.3 °F 5.9 °F 1018.2 in Calm     91 % 0.0 in 0.0 W/m2 CLR
21:47 7.3 °F 5.9 °F 1018.2 in Calm     91 % 0.0 in 0.0 W/m2 CLR
21:52 7.1 °F 5.7 °F 1018.2 in Calm     91 % 0.0 in 0.0 W/m2 CLR
21:57 6.9 °F 5.5 °F 1018.2 in Calm     91 % 0.0 in 0.0 W/m2 CLR
22:02 6.8 °F 5.4 °F 1018.2 in Calm     91 % 0.0 in 0.0 W/m2 CLR
22:07 6.8 °F 5.4 °F 1018.2 in Calm     91 % 0.0 in 0.0 W/m2 CLR
22:12 6.7 °F 5.3 °F 1018.2 in Calm     91 % 0.0 in 0.0 W/m2 CLR
22:17 6.7 °F 5.5 °F 1018.2 in Calm     92 % 0.0 in 0.0 W/m2 CLR
22:22 6.7 °F 5.5 °F 1018.2 in Calm     92 % 0.0 in 0.0 W/m2 CLR
22:27 6.7 °F 5.4 °F 1018.2 in Calm     92 % 0.0 in 0.0 W/m2 CLR
22:32 6.6 °F 5.3 °F 1018.2 in Calm     92 % 0.0 in 0.0 W/m2 CLR
22:37 6.4 °F 5.1 °F 1018.2 in Calm     91 % 0.0 in 0.0 W/m2 CLR
22:42 6.3 °F 5.1 °F 1018.2 in Calm     92 % 0.0 in 0.0 W/m2 CLR
22:47 6.2 °F 5.0 °F 1018.2 in Calm     92 % 0.0 in 0.0 W/m2 CLR
22:53 6.1 °F 4.9 °F 1018.2 in Calm     92 % 0.0 in 0.0 W/m2 CLR
22:58 6.1 °F 4.8 °F 1018.2 in Calm     92 % 0.0 in 0.0 W/m2 CLR
23:03 6.1 °F 4.9 °F 1018.2 in Calm     92 % 0.0 in 0.0 W/m2 CLR
23:08 6.2 °F 5.0 °F 1018.2 in Calm     92 % 0.0 in 0.0 W/m2 CLR
23:13 6.2 °F 4.9 °F 1018.2 in Calm     92 % 0.0 in 0.0 W/m2 CLR
23:18 5.9 °F 4.7 °F 1018.2 in Calm     92 % 0.0 in 0.0 W/m2 CLR
23:23 5.6 °F 4.4 °F 1018.2 in Calm     92 % 0.0 in 0.0 W/m2 CLR
23:28 5.5 °F 4.3 °F 1018.5 in Calm     92 % 0.0 in 0.0 W/m2 CLR
23:38 5.3 °F 4.1 °F 1018.5 in Calm     92 % 0.0 in 0.0 W/m2 CLR
23:43 5.3 °F 4.1 °F 1018.5 in Calm     92 % 0.0 in 0.0 W/m2 CLR
23:48 5.3 °F 4.3 °F 1018.5 in Calm     93 % 0.0 in 0.0 W/m2 CLR
23:53 5.3 °F 4.1 °F 1018.5 in Calm     92 % 0.0 in 0.0 W/m2 CLR
23:58 5.3 °F 4.1 °F 1018.5 in Calm     92 % 0.0 in 0.0 W/m2 CLR
Lo Temps de Massalio
Compliments of Weather Underground - 1.25 mb